Time;durP1;ratioP1;P1;durP2;ratioP2;P2;SDS_P1;SDS_P2;PMS_P1;PMS_P2;Temp;Humidity;BMP_temperature;BMP_pressure;BME280_temperature;BME280_humidity;BME280_pressure;Samples;Min_cycle;Max_cycle;Signal;HPM_P1;HPM_P2
2020/12/11 00:00:08;;;;;;;70.93;27.10;;;;;;;-0.42;81.72;100059.56;5312795;54;1140361;-85
2020/12/11 00:05:15;;;;;;;69.70;26.23;;;;;;;-0.44;81.67;100072.60;5253079;54;1140518;-84
2020/12/11 00:10:21;;;;;;;80.93;30.60;;;;;;;-0.44;81.70;100070.45;5315403;54;1140469;-84
2020/12/11 00:15:26;;;;;;;92.50;36.37;;;;;;;-0.43;81.57;100071.70;5318580;54;1140600;-84
2020/12/11 00:20:32;;;;;;;86.87;33.50;;;;;;;-0.41;81.54;100065.14;5254843;54;1140633;-84
2020/12/11 00:25:38;;;;;;;80.27;33.73;;;;;;;-0.38;81.94;100057.23;5278747;54;1140395;-84
2020/12/11 00:30:43;;;;;;;115.60;41.63;;;;;;;-0.36;81.59;100062.77;5253649;54;1140310;-84
2020/12/11 00:35:49;;;;;;;87.43;31.30;;;;;;;-0.34;81.58;100059.27;5275801;54;1142446;-84
2020/12/11 00:40:55;;;;;;;102.93;37.63;;;;;;;-0.35;81.57;100058.42;5316276;54;1140453;-84
2020/12/11 00:46:00;;;;;;;122.93;44.13;;;;;;;-0.32;81.64;100061.35;5256714;54;1142655;-84
2020/12/11 00:51:06;;;;;;;110.53;39.30;;;;;;;-0.32;81.39;100062.65;5287461;55;1142922;-84
2020/12/11 00:56:12;;;;;;;89.43;32.00;;;;;;;-0.35;81.42;100064.91;5274393;54;1142353;-84
2020/12/11 01:01:18;;;;;;;81.80;30.83;;;;;;;-0.36;81.46;100066.66;5256162;54;1140554;-84
2020/12/11 01:06:23;;;;;;;72.77;29.83;;;;;;;-0.32;81.67;100065.25;5373077;55;21117;-84
2020/12/11 01:11:29;;;;;;;83.20;29.03;;;;;;;-0.33;81.49;100059.66;5298858;55;1136201;-84
2020/12/11 01:16:34;;;;;;;66.50;25.70;;;;;;;-0.36;81.58;100066.66;5292061;55;1140442;-84
2020/12/11 01:21:40;;;;;;;57.63;24.57;;;;;;;-0.34;81.59;100060.56;5264220;54;1140468;-84
2020/12/11 01:26:49;;;;;;;71.45;28.60;;;;;;;-0.39;81.68;100061.59;5353560;55;1138407;-85
2020/12/11 01:32:01;;;;;;;90.77;35.47;;;;;;;-0.39;81.75;100060.28;5273218;54;1140368;-84
2020/12/11 01:37:07;;;;;;;87.70;32.80;;;;;;;-0.31;82.24;100053.50;5290714;54;1140327;-85
2020/12/11 01:42:14;;;;;;;85.13;31.67;;;;;;;-0.29;82.05;100049.06;5269262;54;1140670;-85
2020/12/11 01:47:22;;;;;;;82.50;31.70;;;;;;;-0.26;82.12;100045.04;5275494;54;1146370;-84
2020/12/11 01:52:27;;;;;;;64.73;26.50;;;;;;;-0.25;82.17;100034.20;5294127;55;1141001;-84
2020/12/11 01:57:41;;;;;;;57.13;25.63;;;;;;;-0.19;82.30;100028.30;5274458;54;1140527;-84
2020/12/11 02:02:48;;;;;;;63.02;26.23;;;;;;;-0.19;82.30;100023.11;5293855;54;1140514;-84
2020/12/11 02:07:54;;;;;;;55.88;24.45;;;;;;;-0.14;82.20;100025.04;5297505;54;1140473;-84
2020/12/11 02:13:08;;;;;;;67.17;27.77;;;;;;;-0.15;82.31;100022.50;5274698;54;1140391;-84
2020/12/11 02:18:13;;;;;;;73.03;29.10;;;;;;;-0.16;82.26;100025.58;5379030;55;21150;-84
2020/12/11 02:23:19;;;;;;;62.00;25.68;;;;;;;-0.13;82.41;100025.43;5278764;55;1136552;-84
2020/12/11 02:28:32;;;;;;;67.47;27.98;;;;;;;-0.12;82.55;100023.67;5258375;54;1140431;-84
2020/12/11 02:33:37;;;;;;;;;;;;;;;-0.13;82.37;100015.48;5277513;54;1140567;-84
2020/12/11 02:38:42;;;;;;;69.50;27.30;;;;;;;-0.17;82.40;100009.59;5309288;54;973598;-84
2020/12/11 02:43:48;;;;;;;69.40;29.37;;;;;;;-0.22;82.30;100008.94;5277031;55;1138725;-85
2020/12/11 02:48:53;;;;;;;72.23;30.57;;;;;;;-0.22;82.74;100002.44;5275997;54;1140367;-85
2020/12/11 02:53:59;;;;;;;76.40;30.85;;;;;;;-0.29;82.67;100000.14;5268875;54;1140482;-85
2020/12/11 02:59:04;;;;;;;79.57;31.33;;;;;;;-0.30;82.94;99995.85;5370950;54;21523;-85
2020/12/11 03:04:10;;;;;;;75.80;30.83;;;;;;;-0.34;82.81;100000.36;5287852;55;1134258;-85
2020/12/11 03:09:15;;;;;;;79.32;31.05;;;;;;;-0.33;82.89;99998.61;5270614;55;1140735;-84
2020/12/11 03:14:21;;;;;;;70.50;28.23;;;;;;;-0.29;83.02;99994.95;5298261;54;1138375;-84
2020/12/11 03:19:26;;;;;;;80.57;31.55;;;;;;;-0.32;82.94;100002.44;5298224;54;1138337;-84
2020/12/11 03:24:32;;;;;;;86.87;32.90;;;;;;;-0.26;83.03;99994.83;5273330;55;1140509;-84
2020/12/11 03:29:38;;;;;;;100.27;37.40;;;;;;;-0.26;83.07;99985.73;5302439;54;1138338;-84
2020/12/11 03:34:43;;;;;;;99.40;40.13;;;;;;;-0.24;83.16;99975.67;5273824;54;1140620;-84
2020/12/11 03:39:48;;;;;;;121.47;43.10;;;;;;;-0.21;83.06;99978.59;5273743;54;1138687;-84
2020/12/11 03:44:54;;;;;;;86.53;33.70;;;;;;;-0.24;83.11;99984.77;5270052;54;1140781;-84
2020/12/11 03:50:00;;;;;;;83.43;27.87;;;;;;;-0.23;83.04;99988.20;5276314;54;1138587;-84
2020/12/11 03:55:06;;;;;;;80.70;30.80;;;;;;;-0.23;83.15;99986.45;5319045;54;1138262;-84
2020/12/11 04:00:12;;;;;;;88.70;32.13;;;;;;;-0.24;83.15;99986.52;5271098;54;1138547;-85
2020/12/11 04:05:18;;;;;;;84.27;29.33;;;;;;;-0.21;83.13;99983.80;5296926;54;1138833;-85
2020/12/11 04:10:23;;;;;;;71.77;29.12;;;;;;;-0.21;83.12;99983.80;5275887;55;1138211;-85
2020/12/11 04:15:29;;;;;;;83.97;30.80;;;;;;;-0.22;83.00;99983.41;5283874;54;1138364;-84
2020/12/11 04:20:34;;;;;;;86.77;33.83;;;;;;;-0.24;83.04;99978.72;5272581;54;1138390;-85
2020/12/11 04:25:40;;;;;;;81.10;34.00;;;;;;;-0.34;82.97;99974.83;5278422;54;1138310;-84
2020/12/11 04:30:46;;;;;;;78.80;28.70;;;;;;;-0.29;83.03;99976.76;5286531;54;1138332;-84
2020/12/11 04:35:52;;;;;;;88.60;31.25;;;;;;;-0.26;83.41;99977.94;5242665;54;1138684;-84
2020/12/11 04:41:04;;;;;;;88.43;30.70;;;;;;;-0.20;83.28;99972.49;5274319;55;1138223;-84
2020/12/11 04:46:09;;;;;;;101.03;39.97;;;;;;;-0.17;83.31;99972.38;5350377;55;1134164;-84
2020/12/11 04:51:17;;;;;;;129.67;48.83;;;;;;;-0.17;83.15;99972.38;5300180;54;1140294;-84
2020/12/11 04:56:23;;;;;;;102.05;37.28;;;;;;;-0.12;83.10;99968.64;5271091;54;1140797;-84
2020/12/11 05:01:32;;;;;;;103.63;45.10;;;;;;;-0.13;83.13;99966.11;5297292;54;1140354;-84
2020/12/11 05:06:37;;;;;;;112.07;46.03;;;;;;;-0.13;82.99;99966.95;5306745;54;1140642;-84
2020/12/11 05:11:46;;;;;;;80.20;31.37;;;;;;;-0.13;83.15;99970.85;5253296;54;1140552;-84
2020/12/11 05:17:07;;;;;;;73.97;28.80;;;;;;;-0.13;83.03;99963.05;5254475;54;1138335;-84
2020/12/11 05:22:14;;;;;;;78.60;31.50;;;;;;;-0.07;83.18;99960.66;5337718;54;1136527;-85
2020/12/11 05:27:36;;;;;;;153.70;57.50;;;;;;;-0.11;83.12;99957.80;5256044;54;1138278;-84
2020/12/11 05:32:45;;;;;;;122.17;46.13;;;;;;;-0.06;83.07;99964.50;5250393;54;1141379;-84
2020/12/11 05:38:05;;;;;;;128.83;37.60;;;;;;;-0.10;83.11;99959.48;5357162;54;21431;-84
2020/12/11 05:43:19;;;;;;;105.00;37.30;;;;;;;-0.12;83.19;99958.25;5296109;54;1136398;-84
2020/12/11 05:48:29;;;;;;;122.77;44.77;;;;;;;-0.21;83.33;99940.92;5250717;54;1140563;-84
2020/12/11 05:53:35;;;;;;;106.43;39.00;;;;;;;-0.19;83.33;99958.14;5333338;54;1138352;-85
2020/12/11 05:58:43;;;;;;;110.57;41.50;;;;;;;-0.19;83.36;99952.09;5239047;55;1140628;-85
2020/12/11 06:03:51;;;;;;;128.80;42.07;;;;;;;-0.20;83.55;99942.16;5226167;54;1140602;-84
2020/12/11 06:08:59;;;;;;;98.87;38.00;;;;;;;-0.18;83.46;99945.53;5274391;54;1140446;-84
2020/12/11 06:14:06;;;;;;;128.50;47.67;;;;;;;-0.19;83.79;99940.41;5374080;55;21299;-84
2020/12/11 06:19:12;;;;;;;109.55;38.50;;;;;;;-0.28;83.91;99947.27;5276669;54;1136158;-84
2020/12/11 06:24:31;;;;;;;107.13;38.60;;;;;;;-0.28;84.26;99953.31;5265069;55;1140513;-84
2020/12/11 06:29:40;;;;;;;113.17;41.63;;;;;;;-0.28;84.03;99951.17;5260768;54;1141006;-84
2020/12/11 06:34:46;;;;;;;90.33;30.50;;;;;;;-0.27;84.24;99946.36;5279146;54;1141147;-84
2020/12/11 06:39:51;;;;;;;117.90;44.20;;;;;;;-0.25;84.31;99940.20;5270699;55;1138291;-84
2020/12/11 06:45:23;;;;;;;111.83;42.70;;;;;;;-0.25;84.09;99941.50;5265240;55;1140281;-84
2020/12/11 06:50:32;;;;;;;121.47;46.07;;;;;;;-0.18;84.03;99942.09;5095596;56;1140456;-84
2020/12/11 06:55:51;;;;;;;126.10;44.80;;;;;;;-0.17;83.97;99939.88;5083080;56;1140525;-84
2020/12/11 07:00:57;;;;;;;117.57;45.10;;;;;;;-0.20;83.94;99943.45;5080992;56;1140798;-84
2020/12/11 07:06:08;;;;;;;127.57;44.63;;;;;;;-0.18;83.94;99944.23;5105313;56;1140998;-84
2020/12/11 07:11:15;;;;;;;130.53;42.73;;;;;;;-0.18;84.11;99949.89;5089462;56;1140576;-84
2020/12/11 07:16:21;;;;;;;117.47;39.83;;;;;;;-0.19;84.09;99942.55;5097778;56;1140514;-85
2020/12/11 07:21:30;;;;;;;125.65;44.83;;;;;;;-0.16;84.14;99944.17;5172435;55;1140462;-84
2020/12/11 07:26:36;;;;;;;125.70;44.70;;;;;;;-0.17;84.17;99944.62;5248032;55;1140910;-85
2020/12/11 07:31:55;;;;;;;125.57;45.40;;;;;;;-0.15;83.97;99942.78;5274327;54;1140310;-85
2020/12/11 07:36:59;;;;;;;99.57;42.27;;;;;;;-0.16;84.00;99945.02;5266450;55;1140424;-84
2020/12/11 07:42:08;;;;;;;137.03;51.37;;;;;;;-0.15;83.97;99933.69;5270006;54;1138288;-84
2020/12/11 07:47:16;;;;;;;120.10;44.37;;;;;;;-0.15;84.04;99938.04;5306692;54;1140308;-85
2020/12/11 07:52:27;;;;;;;83.35;31.07;;;;;;;-0.14;84.04;99935.83;5273220;54;1140764;-86
2020/12/11 07:57:33;;;;;;;110.63;40.50;;;;;;;-0.14;84.17;99934.08;5281447;54;1138411;-85
2020/12/11 08:02:39;;;;;;;112.43;43.60;;;;;;;-0.15;84.18;99927.19;5268485;55;1140595;-85
2020/12/11 08:07:47;;;;;;;116.90;45.63;;;;;;;-0.13;84.09;99934.92;5262818;54;1140560;-85
2020/12/11 08:12:55;;;;;;;102.23;44.97;;;;;;;-0.13;83.94;99929.73;5275632;54;1140908;-85
2020/12/11 08:18:26;;;;;;;109.83;44.53;;;;;;;-0.09;83.92;99924.79;5251960;55;1140317;-84
2020/12/11 08:23:42;;;;;;;143.07;60.57;;;;;;;-0.07;83.79;99917.78;5258014;54;1140535;-85
2020/12/11 08:28:49;;;;;;;151.60;61.80;;;;;;;-0.09;83.76;99923.49;5308053;55;1140760;-85
2020/12/11 08:34:11;;;;;;;130.60;45.77;;;;;;;-0.05;83.68;99931.09;5266477;54;1140584;-85
2020/12/11 08:39:28;;;;;;;126.20;46.42;;;;;;;-0.08;83.65;99916.93;5284928;54;1140632;-87
2020/12/11 08:49:53;;;;;;;99.20;39.30;;;;;;;-0.04;83.59;99926.29;5298173;55;1140325;-86
2020/12/11 08:54:53;;;;;;;106.00;46.07;;;;;;;-0.02;83.62;99928.38;5264113;54;1138390;-86
2020/12/11 09:00:02;;;;;;;96.00;41.30;;;;;;;0.04;83.45;99923.80;5263518;54;1140849;-85
2020/12/11 09:05:07;;;;;;;102.70;41.27;;;;;;;0.07;83.49;99922.36;5270254;54;1136186;-86
2020/12/11 09:10:14;;;;;;;96.73;38.10;;;;;;;0.10;83.39;99920.94;5274662;54;1140013;-85
2020/12/11 09:15:22;;;;;;;89.17;36.73;;;;;;;0.13;83.10;99914.30;5271101;54;1136277;-86
2020/12/11 09:20:27;;;;;;;110.32;44.73;;;;;;;0.11;82.96;99911.77;5275572;54;1136686;-85
2020/12/11 09:25:33;;;;;;;103.42;44.70;;;;;;;0.14;83.08;99905.14;5252155;54;1138405;-85
2020/12/11 09:30:40;;;;;;;109.83;49.57;;;;;;;0.18;83.13;99892.82;5285380;54;1138493;-86
2020/12/11 09:35:46;;;;;;;88.53;38.33;;;;;;;0.21;82.95;99885.73;5290258;54;1138178;-86
2020/12/11 09:40:55;;;;;;;106.47;43.60;;;;;;;0.28;82.72;99894.11;5262487;54;1136403;-86
2020/12/11 09:52:01;;;;;;;110.67;40.17;;;;;;;0.28;82.27;99891.52;5272503;55;1138444;-85
2020/12/11 09:56:29;;;;;;;122.90;52.20;;;;;;;0.24;82.37;99885.60;5258383;54;1138486;-85
2020/12/11 10:02:31;;;;;;;107.97;48.25;;;;;;;0.29;82.58;99882.80;5290107;55;1138939;-86
2020/12/11 10:06:41;;;;;;;107.30;42.40;;;;;;;0.35;82.67;99869.50;5243504;54;1138309;-86
2020/12/11 10:11:52;;;;;;;128.95;51.65;;;;;;;0.34;82.27;99861.30;5291407;54;1138688;-86
2020/12/11 10:16:58;;;;;;;122.63;49.53;;;;;;;0.33;82.35;99859.16;5249874;54;1138476;-86
2020/12/11 10:22:04;;;;;;;118.53;48.20;;;;;;;0.37;82.40;99849.92;5246309;54;1138346;-85
2020/12/11 10:27:10;;;;;;;132.87;59.37;;;;;;;0.45;82.52;99843.92;5311707;54;1136142;-85
2020/12/11 10:32:16;;;;;;;142.53;55.93;;;;;;;0.47;82.37;99836.86;5251360;54;1138255;-86
2020/12/11 10:37:21;;;;;;;139.03;56.97;;;;;;;0.53;82.56;99831.38;5239455;54;1138688;-86
2020/12/11 10:42:27;;;;;;;205.55;76.95;;;;;;;0.57;81.68;99831.63;5186670;55;1138809;-84
2020/12/11 10:47:32;;;;;;;136.40;54.95;;;;;;;0.55;81.98;99823.05;5183519;55;1138574;-84
2020/12/11 10:52:38;;;;;;;127.33;52.37;;;;;;;0.59;82.03;99820.69;5174627;55;1138859;-85
2020/12/11 10:57:43;;;;;;;138.57;52.30;;;;;;;0.62;82.32;99821.82;5186632;55;1138857;-85
2020/12/11 11:02:49;;;;;;;159.37;58.03;;;;;;;0.66;82.13;99825.52;5193290;54;1138956;-84
2020/12/11 11:07:54;;;;;;;146.33;58.13;;;;;;;0.72;82.26;99819.64;5202321;55;1138643;-85
2020/12/11 11:18:34;;;;;;;137.20;55.17;;;;;;;0.76;82.38;99804.27;5185875;54;1138794;-86
2020/12/11 11:28:38;;;;;;;140.67;53.97;;;;;;;0.84;82.37;99793.84;5114230;55;1138640;-85
2020/12/11 11:34:29;;;;;;;;;;;;;;;;;;;;;
2020/12/11 11:39:51;;;;;;;187.68;74.55;;;;;;;0.83;82.61;99793.47;4700007;61;1138862;-84
2020/12/11 11:45:06;;;;;;;205.77;80.27;;;;;;;0.86;82.96;99782.06;4698372;60;1138824;-84
2020/12/11 11:55:16;;;;;;;141.35;57.13;;;;;;;0.87;82.92;99777.24;4741832;60;1138878;-84
2020/12/11 12:00:22;;;;;;;169.87;64.70;;;;;;;0.86;82.98;99777.70;4740203;60;1138838;-84
2020/12/11 12:05:27;;;;;;;122.40;45.38;;;;;;;0.88;83.06;99768.06;4751162;60;1138753;-85
2020/12/11 12:10:33;;;;;;;125.53;51.47;;;;;;;0.87;83.22;99768.98;4957186;57;1144075;-84
2020/12/11 12:15:39;;;;;;;137.63;50.10;;;;;;;0.88;83.26;99761.55;5094258;56;1138745;-84
2020/12/11 12:20:52;;;;;;;124.40;47.07;;;;;;;0.90;83.40;99754.52;5129935;56;1139117;-84
2020/12/11 12:31:18;;;;;;;141.50;51.10;;;;;;;0.88;83.76;99752.44;5240454;54;1138275;-84
2020/12/11 12:47:09;;;;;;;157.60;62.30;;;;;;;1.07;83.74;99739.80;5162052;55;1138287;-84
2020/12/11 12:52:14;;;;;;;214.83;90.43;;;;;;;1.12;83.85;99732.11;5250804;54;1138704;-85
2020/12/11 12:57:26;;;;;;;142.53;62.40;;;;;;;1.16;83.61;99727.59;5241417;54;1138242;-85
2020/12/11 13:07:46;;;;;;;155.13;62.00;;;;;;;1.20;83.93;99720.86;5031228;57;1138533;-85
2020/12/11 13:12:51;;;;;;;236.80;111.47;;;;;;;1.24;83.83;99726.72;5072863;57;1138332;-85
2020/12/11 13:17:58;;;;;;;237.07;79.63;;;;;;;1.29;83.97;99731.24;4982830;57;1140834;-84
2020/12/11 13:28:28;;;;;;;120.57;48.78;;;;;;;1.31;84.51;99715.92;4882997;59;1138642;-86
2020/12/11 13:33:34;;;;;;;115.87;47.97;;;;;;;1.34;84.33;99704.05;5017840;57;1141050;-85
2020/12/11 13:38:40;;;;;;;119.28;50.35;;;;;;;1.38;84.35;99704.23;5025467;57;1138710;-85
2020/12/11 13:43:47;;;;;;;184.77;81.97;;;;;;;1.43;84.28;99703.16;5127169;54;1138259;-86
2020/12/11 13:48:53;;;;;;;121.73;47.60;;;;;;;1.43;84.22;99697.95;5240534;54;1138442;-85
2020/12/11 13:53:58;;;;;;;121.40;51.17;;;;;;;1.44;84.44;99687.45;5246154;54;1138190;-85
2020/12/11 13:59:04;;;;;;;116.80;48.33;;;;;;;1.50;84.18;99692.34;5247673;54;1138470;-85
2020/12/11 14:04:10;;;;;;;148.60;57.43;;;;;;;1.49;84.54;99700.25;5245989;54;1138709;-85
2020/12/11 14:09:15;;;;;;;136.97;57.57;;;;;;;1.52;84.24;99700.93;5250840;54;1138746;-85
2020/12/11 14:14:23;;;;;;;123.20;51.23;;;;;;;1.57;84.36;99699.36;5250198;54;1139221;-84
2020/12/11 14:20:03;;;;;;;168.50;63.47;;;;;;;1.59;84.27;99689.70;5268426;54;1138834;-86
2020/12/11 14:24:48;;;;;;;177.37;64.53;;;;;;;1.59;84.28;99691.84;5242856;54;1138843;-85
2020/12/11 14:29:54;;;;;;;146.47;55.37;;;;;;;1.70;84.04;99689.95;5254026;54;1138215;-85
2020/12/11 14:34:59;;;;;;;126.70;51.97;;;;;;;1.70;84.04;99689.95;5251341;54;1138399;-85
2020/12/11 14:40:06;;;;;;;156.03;60.17;;;;;;;1.68;84.20;99685.31;5251108;54;1138281;-85
2020/12/11 14:45:13;;;;;;;145.70;55.33;;;;;;;1.70;84.19;99686.03;5243922;54;1138201;-86
2020/12/11 14:50:18;;;;;;;124.67;50.07;;;;;;;1.74;84.03;99683.19;5288558;54;1138419;-86
2020/12/11 14:55:24;;;;;;;126.07;53.87;;;;;;;1.75;84.06;99682.73;5294640;54;1138394;-86
2020/12/11 15:00:29;;;;;;;108.83;50.23;;;;;;;1.74;84.15;99688.86;5231123;54;1138751;-87
2020/12/11 15:05:35;;;;;;;109.07;48.03;;;;;;;1.76;83.96;99689.16;5241308;54;1139303;-85
2020/12/11 15:10:41;;;;;;;130.50;60.70;;;;;;;1.81;83.89;99684.17;5268880;54;1138342;-85
2020/12/11 15:15:47;;;;;;;188.27;82.80;;;;;;;1.81;83.91;99688.92;5336144;54;1138550;-86
2020/12/11 15:20:54;;;;;;;149.90;58.00;;;;;;;1.80;83.86;99687.70;5255392;54;1138627;-86
2020/12/11 15:26:00;;;;;;;158.20;63.33;;;;;;;1.80;83.74;99686.39;5282548;54;1138475;-86
2020/12/11 15:31:07;;;;;;;208.90;87.47;;;;;;;1.83;83.65;99681.86;5324882;54;1138485;-86
2020/12/11 15:36:18;;;;;;;196.98;86.30;;;;;;;1.82;83.65;99678.03;5270164;55;1138515;-85
2020/12/11 15:41:23;;;;;;;145.93;59.13;;;;;;;1.80;83.60;99678.11;5271174;54;1138525;-85
2020/12/11 15:46:29;;;;;;;162.07;64.13;;;;;;;1.81;83.50;99681.09;5258878;55;1138427;-83
2020/12/11 15:51:35;;;;;;;178.47;77.70;;;;;;;1.83;83.41;99677.95;5291928;55;1138681;-84
2020/12/11 15:56:41;;;;;;;168.57;68.37;;;;;;;1.82;83.46;99675.42;5273340;55;1139081;-84
2020/12/11 16:01:46;;;;;;;149.60;63.50;;;;;;;1.79;83.47;99681.64;5267712;54;1138783;-84
2020/12/11 16:06:54;;;;;;;194.07;86.40;;;;;;;1.81;83.37;99681.09;5262668;54;1138540;-84
2020/12/11 16:12:05;;;;;;;152.43;64.32;;;;;;;1.85;83.31;99681.28;5290011;54;1138333;-84
2020/12/11 16:17:13;;;;;;;123.53;51.67;;;;;;;1.84;83.26;99672.24;5250356;55;1138537;-85
2020/12/11 16:22:19;;;;;;;140.87;66.60;;;;;;;1.81;83.28;99676.34;5293944;54;1138396;-85
2020/12/11 16:27:24;;;;;;;131.60;61.47;;;;;;;1.83;83.11;99674.04;5266632;55;1138508;-85
2020/12/11 16:32:35;;;;;;;116.47;51.40;;;;;;;1.90;83.14;99677.12;5285530;55;1138229;-86
2020/12/11 16:37:42;;;;;;;166.97;73.80;;;;;;;1.89;83.03;99674.14;5263823;55;1138687;-85
2020/12/11 16:42:54;;;;;;;105.10;46.07;;;;;;;1.86;83.05;99671.23;5263929;55;1138929;-85
2020/12/11 16:47:56;;;;;;;203.30;86.67;;;;;;;1.85;82.95;99666.95;5272892;55;1139009;-85
2020/12/11 16:53:02;;;;;;;226.40;100.58;;;;;;;1.89;82.88;99672.38;5293272;55;1138311;-85
2020/12/11 16:58:07;;;;;;;137.30;56.03;;;;;;;1.90;82.96;99675.36;5260985;54;1140301;-85
2020/12/11 17:03:31;;;;;;;128.68;59.38;;;;;;;1.87;82.90;99672.92;5265056;55;1138727;-86
2020/12/11 17:08:34;;;;;;;113.33;53.33;;;;;;;1.88;82.84;99665.94;5267043;54;1138730;-85
2020/12/11 17:13:39;;;;;;;147.23;59.77;;;;;;;1.89;82.82;99672.84;5276411;54;1138243;-86
2020/12/11 17:18:44;;;;;;;106.05;42.90;;;;;;;1.89;82.92;99673.68;5248752;55;1138760;-85
2020/12/11 17:23:50;;;;;;;180.87;64.10;;;;;;;1.89;82.79;99677.59;5269179;54;1138251;-85
2020/12/11 17:28:59;;;;;;;102.60;44.83;;;;;;;1.92;82.75;99673.98;5281155;55;1138747;-85
2020/12/11 17:34:17;;;;;;;71.13;28.97;;;;;;;1.88;82.68;99668.09;5269633;54;1138769;-85
2020/12/11 17:39:15;;;;;;;109.23;48.63;;;;;;;1.83;82.64;99658.40;5265237;54;1136317;-85
2020/12/11 17:44:20;;;;;;;95.77;39.15;;;;;;;1.84;82.56;99665.72;5264835;54;1138288;-86
2020/12/11 17:49:32;;;;;;;116.80;44.13;;;;;;;1.81;82.58;99664.61;5267488;54;1136272;-86
2020/12/11 17:54:33;;;;;;;106.93;39.30;;;;;;;1.76;82.62;99657.88;5250656;55;1138917;-86
2020/12/11 17:59:39;;;;;;;104.92;41.28;;;;;;;1.78;82.64;99659.56;5260403;54;1138246;-86
2020/12/11 18:04:45;;;;;;;114.57;51.83;;;;;;;1.74;82.64;99649.77;5260905;55;1138578;-86
2020/12/11 18:10:01;;;;;;;199.80;76.70;;;;;;;1.69;82.84;99650.47;5275803;55;1138201;-86
2020/12/11 18:15:07;;;;;;;212.83;81.00;;;;;;;1.66;82.77;99650.20;5262816;54;1138791;-86
2020/12/11 18:20:13;;;;;;;192.03;66.73;;;;;;;1.68;82.72;99649.63;5269945;55;1138687;-86
2020/12/11 18:25:18;;;;;;;151.80;66.03;;;;;;;1.67;82.79;99652.34;5263709;55;1138798;-86
2020/12/11 18:30:24;;;;;;;105.73;42.63;;;;;;;1.64;82.93;99657.72;5289627;54;1138308;-86
2020/12/11 18:35:30;;;;;;;197.65;80.90;;;;;;;1.65;83.05;99662.01;5268738;55;1138574;-85
2020/12/11 18:40:36;;;;;;;184.73;84.57;;;;;;;1.64;83.12;99656.42;5285981;54;1138239;-86
2020/12/11 18:45:42;;;;;;;132.73;57.87;;;;;;;1.65;83.28;99651.13;5267440;54;1138759;-85
2020/12/11 18:50:48;;;;;;;136.73;63.97;;;;;;;1.69;83.44;99647.40;5286187;54;1138209;-86
2020/12/11 18:56:03;;;;;;;139.50;65.57;;;;;;;1.73;83.53;99642.87;5271007;55;1138450;-86
2020/12/11 19:01:07;;;;;;;159.87;61.70;;;;;;;1.73;83.61;99646.77;5290285;55;1138328;-86
2020/12/11 19:06:12;;;;;;;160.53;66.40;;;;;;;1.74;83.50;99644.09;5355138;55;1138383;-85
2020/12/11 19:11:18;;;;;;;153.63;63.53;;;;;;;1.77;83.53;99644.39;5270327;54;1138351;-86
2020/12/11 19:16:25;;;;;;;127.15;55.17;;;;;;;1.78;83.51;99652.59;5296082;55;1138323;-86
2020/12/11 19:21:31;;;;;;;151.68;62.23;;;;;;;1.75;83.83;99648.38;5280858;54;1138373;-85
2020/12/11 19:26:40;;;;;;;388.98;170.75;;;;;;;1.76;83.71;99644.00;5244187;55;1138827;-86
2020/12/11 19:31:46;;;;;;;137.50;56.92;;;;;;;1.74;84.13;99645.39;5256826;54;1140900;-85
2020/12/11 19:36:52;;;;;;;117.83;48.77;;;;;;;1.71;83.98;99646.86;5264384;54;1138743;-86
2020/12/11 19:41:57;;;;;;;156.77;70.00;;;;;;;1.71;83.99;99639.50;5269479;54;1138358;-85
2020/12/11 19:47:03;;;;;;;117.03;54.53;;;;;;;1.72;83.91;99638.58;5249891;55;1139063;-86
2020/12/11 19:52:08;;;;;;;116.53;49.53;;;;;;;1.73;84.20;99637.66;5327756;54;1136345;-86
2020/12/11 19:57:14;;;;;;;110.17;49.45;;;;;;;1.65;84.30;99630.27;5251967;54;1138375;-86
2020/12/11 20:02:19;;;;;;;119.80;48.60;;;;;;;1.59;84.56;99624.09;5252968;55;1138333;-86
2020/12/11 20:12:39;;;;;;;128.68;50.73;;;;;;;1.51;84.54;99628.05;5244070;54;1138220;-86
2020/12/11 20:17:47;;;;;;;111.27;40.47;;;;;;;1.45;84.57;99614.88;5253121;54;1138310;-86
2020/12/11 20:22:52;;;;;;;106.07;36.67;;;;;;;1.39;84.79;99626.92;5310549;54;1138405;-86
2020/12/11 20:27:59;;;;;;;102.83;38.77;;;;;;;1.33;84.75;99626.81;5246663;54;1138502;-85
2020/12/11 20:33:04;;;;;;;89.13;34.40;;;;;;;1.21;85.01;99613.16;5309593;54;1138324;-87
2020/12/11 20:38:10;;;;;;;109.70;45.63;;;;;;;1.17;85.27;99606.42;5314498;54;1136264;-85
2020/12/11 20:43:15;;;;;;;107.43;43.37;;;;;;;1.10;85.30;99608.12;5265265;54;1138332;-86
2020/12/11 20:48:21;;;;;;;104.58;43.83;;;;;;;1.07;85.29;99604.41;5292449;55;1138258;-85
2020/12/11 20:53:26;;;;;;;112.57;46.70;;;;;;;1.04;85.05;99600.20;5186134;55;1138734;-86
2020/12/11 20:58:33;;;;;;;89.90;35.85;;;;;;;0.96;85.17;99598.45;5213288;55;1138826;-86
2020/12/11 21:03:39;;;;;;;75.10;32.93;;;;;;;0.86;85.36;99590.75;5221581;54;1136466;-87
2020/12/11 21:08:45;;;;;;;75.83;27.17;;;;;;;0.79;85.50;99594.58;5274210;54;1145971;-87
2020/12/11 21:13:51;;;;;;;61.45;23.05;;;;;;;0.69;86.05;99606.78;5345021;55;1136120;-87
2020/12/11 21:18:56;;;;;;;67.30;27.07;;;;;;;0.70;86.08;99605.87;5285909;54;1136394;-86
2020/12/11 21:24:02;;;;;;;85.57;35.20;;;;;;;0.74;86.03;99609.61;5326552;54;1136289;-86
2020/12/11 21:29:10;;;;;;;76.90;28.80;;;;;;;0.70;86.01;99594.16;5268790;55;1136720;-86
2020/12/11 21:39:38;;;;;;;72.67;30.93;;;;;;;0.61;86.94;99608.92;5270054;54;1136465;-86
2020/12/11 21:44:43;;;;;;;64.20;25.67;;;;;;;0.63;87.04;99594.53;5260664;55;1136216;-87
2020/12/11 21:49:49;;;;;;;87.27;32.50;;;;;;;0.63;86.97;99595.84;5268650;55;1136715;-86
2020/12/11 21:54:54;;;;;;;85.93;31.50;;;;;;;0.62;86.91;99587.65;5292994;55;1136293;-86
2020/12/11 22:00:00;;;;;;;79.67;30.40;;;;;;;0.65;87.12;99586.20;5257850;54;1136277;-86
2020/12/11 22:05:06;;;;;;;75.00;28.63;;;;;;;0.65;87.35;99588.34;5267526;55;1136154;-86
2020/12/11 22:10:12;;;;;;;80.90;30.93;;;;;;;0.65;87.49;99575.78;5270314;54;1136465;-85
2020/12/11 22:15:17;;;;;;;114.95;44.27;;;;;;;0.70;86.80;99579.84;5264470;55;1136597;-86
2020/12/11 22:20:23;;;;;;;95.07;35.10;;;;;;;0.68;87.33;99582.98;5264932;55;1138385;-86
2020/12/11 22:25:28;;;;;;;58.20;20.08;;;;;;;0.69;87.30;99570.35;5274973;54;1136421;-86
2020/12/11 22:30:35;;;;;;;78.70;30.35;;;;;;;0.68;87.83;99580.84;5260789;54;1145982;-86
2020/12/11 22:35:41;;;;;;;91.13;34.53;;;;;;;0.66;87.79;99578.31;5273484;54;1136752;-85
2020/12/11 22:40:46;;;;;;;65.17;22.25;;;;;;;0.68;87.97;99573.03;5273319;55;1136410;-85
2020/12/11 22:45:52;;;;;;;87.67;31.87;;;;;;;0.71;88.07;99566.37;5328014;54;1136736;-85
2020/12/11 22:50:58;;;;;;;82.53;25.73;;;;;;;0.77;87.51;99559.98;5271545;54;1136486;-85
2020/12/11 22:56:03;;;;;;;84.87;30.37;;;;;;;0.75;87.98;99561.85;5287272;54;1136391;-85
2020/12/11 23:01:10;;;;;;;86.13;30.53;;;;;;;0.75;87.75;99557.49;5355749;54;1136373;-86
2020/12/11 23:06:15;;;;;;;96.03;31.77;;;;;;;0.79;87.50;99552.48;5272299;54;1136273;-86
2020/12/11 23:11:24;;;;;;;90.97;30.30;;;;;;;0.78;87.86;99553.40;5291196;55;1136139;-86
2020/12/11 23:16:30;;;;;;;62.73;22.33;;;;;;;0.82;87.50;99557.53;5274265;55;1136186;-86
2020/12/11 23:21:35;;;;;;;81.53;26.23;;;;;;;0.77;88.09;99559.98;5335107;54;1136128;-86
2020/12/11 23:26:44;;;;;;;71.47;27.23;;;;;;;0.76;87.94;99551.83;5275296;54;1136646;-86
2020/12/11 23:31:50;;;;;;;54.70;22.17;;;;;;;0.74;87.97;99553.20;5291392;55;1136187;-86
2020/12/11 23:36:56;;;;;;;66.03;21.80;;;;;;;0.77;88.11;99561.28;5366910;55;21129;-86
2020/12/11 23:42:04;;;;;;;79.30;28.33;;;;;;;0.73;88.29;99555.89;5285741;54;1132421;-86
2020/12/11 23:47:09;;;;;;;75.70;30.03;;;;;;;0.75;87.99;99554.05;5273805;54;1136152;-86
2020/12/11 23:52:15;;;;;;;68.87;23.30;;;;;;;0.76;87.95;99550.06;5315867;55;1136604;-86
2020/12/11 23:57:21;;;;;;;88.87;29.17;;;;;;;0.76;88.08;99550.52;5297045;54;1136287;-86
